createdAt,value
2019-05-28T00:00:26.637Z,0
2019-05-28T00:01:25.133Z,0
2019-05-28T00:02:23.679Z,0
2019-05-28T00:03:22.256Z,0
2019-05-28T00:04:21.015Z,0
2019-05-28T00:05:19.671Z,0
2019-05-28T00:06:18.369Z,0
2019-05-28T00:07:16.993Z,0
2019-05-28T00:08:15.516Z,0
2019-05-28T00:09:14.150Z,0
2019-05-28T00:10:12.719Z,0
2019-05-28T00:11:11.256Z,0
2019-05-28T00:12:09.811Z,0
2019-05-28T00:13:08.426Z,0
2019-05-28T00:14:07.069Z,0
2019-05-28T00:15:05.646Z,0
2019-05-28T00:16:04.416Z,0
2019-05-28T00:17:02.982Z,0
2019-05-28T00:18:01.523Z,0
2019-05-28T00:19:00.321Z,0
2019-05-28T00:19:58.857Z,0
2019-05-28T00:20:57.416Z,0
2019-05-28T00:21:55.960Z,0
2019-05-28T00:22:54.512Z,0
2019-05-28T00:23:53.090Z,0
2019-05-28T00:24:51.778Z,0
2019-05-28T00:25:50.473Z,0
2019-05-28T00:26:49.033Z,0
2019-05-28T00:27:47.596Z,0
2019-05-28T00:28:46.249Z,0
2019-05-28T00:29:44.856Z,0
2019-05-28T00:30:43.409Z,0
2019-05-28T00:31:42.061Z,0
2019-05-28T00:32:40.625Z,0
2019-05-28T00:33:39.314Z,0
2019-05-28T00:34:37.926Z,0
2019-05-28T00:35:36.588Z,0
2019-05-28T00:36:35.204Z,0
2019-05-28T00:37:33.782Z,0
2019-05-28T00:38:32.586Z,0
2019-05-28T00:39:31.167Z,0
2019-05-28T00:40:29.716Z,0
2019-05-28T00:41:28.270Z,0
2019-05-28T00:42:26.887Z,0
2019-05-28T00:43:25.478Z,0
2019-05-28T00:44:24.098Z,0
2019-05-28T00:45:22.675Z,0
2019-05-28T00:46:21.215Z,0
2019-05-28T00:47:19.951Z,0
2019-05-28T00:48:18.744Z,0
2019-05-28T00:49:17.318Z,0
2019-05-28T00:50:15.939Z,0
2019-05-28T00:51:14.843Z,0
2019-05-28T00:52:13.413Z,0
2019-05-28T00:53:12.042Z,0
2019-05-28T00:54:10.783Z,0
2019-05-28T00:55:09.359Z,0
2019-05-28T00:56:07.928Z,0
2019-05-28T00:57:06.599Z,0
2019-05-28T00:58:05.167Z,0
2019-05-28T00:59:03.709Z,0
2019-05-28T01:00:02.373Z,0
2019-05-28T01:01:00.952Z,0
2019-05-28T01:01:59.518Z,0
2019-05-28T01:02:58.262Z,0
2019-05-28T01:03:56.868Z,0
2019-05-28T01:04:55.500Z,0
2019-05-28T01:05:54.044Z,0
2019-05-28T01:06:52.617Z,0
2019-05-28T01:07:51.203Z,0
2019-05-28T01:08:49.779Z,0
2019-05-28T01:09:48.521Z,0
2019-05-28T01:10:47.074Z,0
2019-05-28T01:11:45.644Z,0
2019-05-28T01:12:44.355Z,0
2019-05-28T01:13:42.933Z,0
2019-05-28T01:14:41.619Z,0
2019-05-28T01:15:40.222Z,0
2019-05-28T01:16:38.792Z,0
2019-05-28T01:17:37.353Z,0
2019-05-28T01:18:35.901Z,0
2019-05-28T01:19:34.482Z,0
2019-05-28T01:20:33.154Z,0
2019-05-28T01:21:31.746Z,0
2019-05-28T01:22:30.406Z,0
2019-05-28T01:23:28.983Z,0
2019-05-28T01:24:27.546Z,0
2019-05-28T01:25:26.284Z,0
2019-05-28T01:26:24.848Z,0
2019-05-28T01:27:23.409Z,0
2019-05-28T01:28:21.942Z,0
2019-05-28T01:29:20.568Z,0
2019-05-28T01:30:19.117Z,0
2019-05-28T01:31:17.667Z,0
2019-05-28T01:32:16.696Z,0
2019-05-28T01:33:15.264Z,0
2019-05-28T01:34:13.936Z,0
2019-05-28T01:35:12.620Z,0
2019-05-28T01:36:11.174Z,0
2019-05-28T01:37:09.743Z,0
2019-05-28T01:38:08.795Z,0
2019-05-28T01:39:07.311Z,0
2019-05-28T01:40:06.025Z,0
2019-05-28T01:41:04.694Z,0
2019-05-28T01:42:03.239Z,0
2019-05-28T01:43:01.920Z,0
2019-05-28T01:44:00.677Z,0
2019-05-28T01:44:59.281Z,0
2019-05-28T01:45:57.893Z,0
2019-05-28T01:46:56.602Z,0
2019-05-28T01:47:57.518Z,0
2019-05-28T01:48:53.856Z,0
2019-05-28T01:49:52.442Z,0
2019-05-28T01:50:51.022Z,0
2019-05-28T01:53:31.300Z,0
2019-05-28T01:54:29.977Z,0
2019-05-28T01:55:28.645Z,0
2019-05-28T01:56:27.246Z,0
2019-05-28T01:57:25.822Z,0
2019-05-28T01:58:24.366Z,0
2019-05-28T01:59:22.943Z,0
2019-05-28T02:00:21.549Z,0
2019-05-28T02:01:20.517Z,0
2019-05-28T02:02:19.087Z,0
2019-05-28T02:03:17.889Z,0
2019-05-28T02:04:16.476Z,0
2019-05-28T02:05:15.054Z,0
2019-05-28T02:06:13.618Z,0
2019-05-28T02:07:12.197Z,0
2019-05-28T02:08:10.819Z,0
2019-05-28T02:09:09.369Z,0
2019-05-28T02:10:07.929Z,0
2019-05-28T02:12:30.813Z,0
2019-05-28T02:22:02.440Z,0
2019-05-28T02:23:00.999Z,0
2019-05-28T02:23:59.570Z,0
2019-05-28T02:24:58.151Z,0
2019-05-28T02:25:56.964Z,0
2019-05-28T02:26:55.603Z,0
2019-05-28T02:27:54.439Z,0
2019-05-28T02:28:53.031Z,0
2019-05-28T02:29:51.604Z,0
2019-05-28T02:30:50.161Z,0
2019-05-28T02:31:48.735Z,0
2019-05-28T02:32:47.303Z,0
2019-05-28T02:33:45.892Z,0
2019-05-28T02:34:44.811Z,0
2019-05-28T02:35:43.419Z,0
2019-05-28T02:36:42.018Z,0
2019-05-28T02:37:40.601Z,0
2019-05-28T02:38:39.148Z,0
2019-05-28T02:39:37.697Z,0
2019-05-28T02:40:36.273Z,0
2019-05-28T02:41:34.820Z,0
2019-05-28T02:42:33.376Z,0
2019-05-28T02:43:31.945Z,0
2019-05-28T02:44:30.924Z,0
2019-05-28T02:45:29.469Z,0
2019-05-28T02:46:28.022Z,0
2019-05-28T02:47:26.761Z,0
2019-05-28T02:48:25.607Z,0
2019-05-28T02:49:24.195Z,0
2019-05-28T02:50:22.897Z,0
2019-05-28T02:51:21.524Z,0
2019-05-28T02:52:20.417Z,0
2019-05-28T02:53:18.956Z,0
2019-05-28T02:54:17.596Z,0
2019-05-28T02:55:16.208Z,0
2019-05-28T02:56:14.910Z,0
2019-05-28T02:57:13.467Z,0
2019-05-28T02:58:12.132Z,0
2019-05-28T02:59:10.790Z,0
2019-05-28T03:00:09.392Z,0
2019-05-28T03:01:08.018Z,0
2019-05-28T03:02:06.582Z,0
2019-05-28T03:03:05.132Z,0
2019-05-28T03:04:03.869Z,0
2019-05-28T03:05:02.702Z,0
2019-05-28T03:07:42.760Z,0
2019-05-28T03:08:41.308Z,0
2019-05-28T03:09:39.988Z,0
2019-05-28T03:11:01.096Z,0
2019-05-28T03:11:37.137Z,4
2019-05-28T03:12:35.716Z,4
2019-05-28T03:13:34.280Z,0
2019-05-28T03:22:21.600Z,12
2019-05-28T03:23:20.291Z,16
2019-05-28T03:24:18.861Z,16
2019-05-28T03:25:17.453Z,20
2019-05-28T03:26:16.038Z,20
2019-05-28T03:28:40.989Z,16
2019-05-28T03:29:39.582Z,16
2019-05-28T03:30:38.256Z,20
2019-05-28T03:31:36.811Z,20
2019-05-28T03:32:35.391Z,28
2019-05-28T03:33:33.987Z,28
2019-05-28T03:34:32.538Z,24
2019-05-28T03:35:31.212Z,28
2019-05-28T03:36:29.712Z,24
2019-05-28T03:37:28.441Z,32
2019-05-28T03:38:27.116Z,36
2019-05-28T03:39:25.652Z,36
2019-05-28T03:40:24.299Z,40
2019-05-28T03:41:22.852Z,44
2019-05-28T03:42:21.411Z,48
2019-05-28T03:43:20.037Z,52
2019-05-28T03:44:18.562Z,56
2019-05-28T03:45:17.119Z,60
2019-05-28T03:46:15.667Z,60
2019-05-28T03:47:14.200Z,68
2019-05-28T03:48:12.787Z,72
2019-05-28T03:49:11.398Z,80
2019-05-28T03:50:09.962Z,80
2019-05-28T03:51:08.605Z,84
2019-05-28T03:52:07.199Z,88
2019-05-28T03:53:05.773Z,96
2019-05-28T03:54:04.604Z,104
2019-05-28T03:55:03.168Z,108
2019-05-28T03:56:02.014Z,116
2019-05-28T03:57:00.679Z,128
2019-05-28T03:57:59.263Z,140
2019-05-28T03:58:58.112Z,156
2019-05-28T03:59:57.901Z,180
2019-05-28T04:00:55.262Z,200
2019-05-28T04:01:53.925Z,224
2019-05-28T04:02:52.496Z,228
2019-05-28T04:03:51.175Z,240
2019-05-28T04:04:49.690Z,244
2019-05-28T04:05:48.449Z,256
2019-05-28T04:06:47.157Z,252
2019-05-28T04:07:45.772Z,248
2019-05-28T04:10:27.436Z,240
2019-05-28T04:11:25.291Z,240
2019-05-28T04:12:23.854Z,244
2019-05-28T04:13:22.403Z,256
2019-05-28T04:14:20.964Z,268
2019-05-28T04:15:19.474Z,288
2019-05-28T04:16:18.355Z,300
2019-05-28T04:17:16.908Z,324
2019-05-28T04:18:15.523Z,348
2019-05-28T04:19:14.085Z,376
2019-05-28T04:20:12.831Z,400
2019-05-28T04:21:11.402Z,428
2019-05-28T04:22:09.937Z,452
2019-05-28T04:23:08.485Z,468
2019-05-28T04:25:31.466Z,436
2019-05-28T04:26:30.097Z,428
2019-05-28T04:27:28.828Z,432
2019-05-28T04:28:28.075Z,436
2019-05-28T04:29:26.783Z,420
2019-05-28T04:30:25.340Z,384
2019-05-28T04:31:23.901Z,336
2019-05-28T04:32:37.255Z,288
2019-05-28T04:33:21.070Z,268
2019-05-28T04:34:20.512Z,260
2019-05-28T04:35:18.305Z,272
2019-05-28T04:36:17.029Z,284
2019-05-28T04:37:15.628Z,304
2019-05-28T04:38:14.294Z,324
2019-05-28T04:39:12.888Z,352
2019-05-28T04:40:11.460Z,388
2019-05-28T04:41:10.083Z,424
2019-05-28T04:42:08.632Z,432
2019-05-28T04:43:07.232Z,460
2019-05-28T04:44:05.797Z,492
2019-05-28T04:45:04.782Z,528
2019-05-28T04:46:03.401Z,568
2019-05-28T04:47:02.021Z,632
2019-05-28T04:48:00.675Z,696
2019-05-28T04:48:59.235Z,720
2019-05-28T04:49:57.805Z,696
2019-05-28T04:50:56.400Z,664
2019-05-28T04:51:55.060Z,684
2019-05-28T04:52:53.648Z,716
2019-05-28T04:53:52.412Z,728
2019-05-28T04:54:51.148Z,744
2019-05-28T04:55:49.711Z,824
2019-05-28T04:56:48.297Z,916
2019-05-28T04:57:47.052Z,980
2019-05-28T04:58:45.626Z,1000
2019-05-28T04:59:44.500Z,972
2019-05-28T05:00:43.087Z,856
2019-05-28T05:01:41.655Z,660
2019-05-28T05:02:55.499Z,476
2019-05-28T05:03:39.073Z,376
2019-05-28T05:04:37.551Z,344
2019-05-28T05:05:36.124Z,336
2019-05-28T05:06:34.888Z,328
2019-05-28T05:07:33.482Z,320
2019-05-28T05:08:32.088Z,348
2019-05-28T05:09:30.715Z,412
2019-05-28T05:10:29.265Z,496
2019-05-28T05:11:27.813Z,560
2019-05-28T05:12:26.458Z,592
2019-05-28T05:13:25.036Z,620
2019-05-28T05:14:23.557Z,676
2019-05-28T05:15:22.125Z,736
2019-05-28T05:16:20.695Z,776
2019-05-28T05:17:19.279Z,752
2019-05-28T05:18:17.874Z,692
2019-05-28T05:19:16.430Z,624
2019-05-28T05:20:15.143Z,564
2019-05-28T05:21:13.721Z,576
2019-05-28T05:22:12.438Z,676
2019-05-28T05:23:11.106Z,844
2019-05-28T05:24:09.658Z,968
2019-05-28T05:25:08.305Z,1024
2019-05-28T05:26:06.943Z,1112
2019-05-28T05:27:05.507Z,1308
2019-05-28T05:28:04.082Z,1404
2019-05-28T05:29:02.898Z,1436
2019-05-28T05:30:01.473Z,1420
2019-05-28T05:31:00.086Z,1336
2019-05-28T05:31:58.724Z,1304
2019-05-28T05:32:57.281Z,1384
2019-05-28T05:33:56.002Z,1516
2019-05-28T05:34:54.578Z,1648
2019-05-28T05:35:53.381Z,1732
2019-05-28T05:36:51.945Z,1800
2019-05-28T05:37:50.631Z,1916
2019-05-28T05:38:49.175Z,2048
2019-05-28T05:39:48.982Z,2204
2019-05-28T05:40:46.365Z,2352
2019-05-28T05:41:44.984Z,2388
2019-05-28T05:42:43.547Z,2376
2019-05-28T05:43:42.100Z,2448
2019-05-28T05:44:40.851Z,2436
2019-05-28T05:45:39.636Z,2308
2019-05-28T05:46:38.297Z,2116
2019-05-28T05:47:36.971Z,1896
2019-05-28T05:48:35.546Z,1708
2019-05-28T05:49:34.203Z,1592
2019-05-28T05:50:32.741Z,1580
2019-05-28T05:51:31.428Z,1672
2019-05-28T05:52:30.799Z,1788
2019-05-28T05:53:29.368Z,1824
2019-05-28T05:54:27.933Z,1796
2019-05-28T05:55:26.814Z,1716
2019-05-28T05:56:25.393Z,1612
2019-05-28T05:57:24.060Z,1600
2019-05-28T05:58:22.761Z,1752
2019-05-28T05:59:21.344Z,1972
2019-05-28T06:00:19.923Z,2224
2019-05-28T06:01:18.488Z,2452
2019-05-28T06:02:17.106Z,2732
2019-05-28T06:03:15.688Z,3000
2019-05-28T06:07:40.767Z,3384
2019-05-28T06:08:39.335Z,3440
2019-05-28T06:09:37.909Z,3624
2019-05-28T06:10:37.082Z,3832
2019-05-28T06:11:35.665Z,4064
2019-05-28T06:12:34.687Z,4284
2019-05-28T06:13:33.230Z,4400
2019-05-28T06:14:31.768Z,4444
2019-05-28T06:15:30.472Z,4516
2019-05-28T06:16:29.095Z,4688
2019-05-28T06:17:27.692Z,4848
2019-05-28T06:18:26.300Z,5008
2019-05-28T06:19:24.854Z,5168
2019-05-28T06:20:23.443Z,5324
2019-05-28T06:21:22.032Z,5560
2019-05-28T06:22:20.907Z,5740
2019-05-28T06:23:19.464Z,5468
2019-05-28T06:24:18.038Z,5220
2019-05-28T06:25:16.664Z,5232
2019-05-28T06:26:15.183Z,5108
2019-05-28T06:27:13.750Z,4844
2019-05-28T06:28:12.444Z,4688
2019-05-28T06:29:11.034Z,4584
2019-05-28T06:30:09.812Z,4408
2019-05-28T06:31:08.539Z,4320
2019-05-28T06:32:07.236Z,4180
2019-05-28T06:33:05.908Z,4116
2019-05-28T06:34:04.492Z,4096
2019-05-28T06:35:03.055Z,4040
2019-05-28T06:36:01.606Z,3992
2019-05-28T06:37:00.205Z,3920
2019-05-28T06:37:58.829Z,3816
2019-05-28T06:38:57.401Z,3744
2019-05-28T06:39:55.959Z,3652
2019-05-28T06:40:54.607Z,3620
2019-05-28T06:41:53.187Z,3564
2019-05-28T06:42:51.768Z,3548
2019-05-28T06:43:50.434Z,3604
2019-05-28T06:44:49.295Z,3656
2019-05-28T06:45:47.660Z,3664
2019-05-28T06:46:46.337Z,3660
2019-05-28T06:47:45.679Z,3668
2019-05-28T06:48:43.478Z,3724
2019-05-28T06:49:42.072Z,3760
2019-05-28T06:50:40.756Z,3844
2019-05-28T06:51:39.389Z,3932
2019-05-28T06:52:37.946Z,4012
2019-05-28T06:53:36.593Z,4108
2019-05-28T06:57:22.609Z,4444
2019-05-28T06:58:14.330Z,4556
2019-05-28T06:59:12.921Z,4676
2019-05-28T07:00:11.547Z,4780
2019-05-28T07:01:10.291Z,4876
2019-05-28T07:02:08.893Z,5000
2019-05-28T07:03:07.495Z,5120
2019-05-28T07:04:13.702Z,5236
2019-05-28T07:05:04.653Z,5340
2019-05-28T07:06:07.448Z,5496
2019-05-28T07:07:02.113Z,5592
2019-05-28T07:08:00.821Z,5664
2019-05-28T07:08:59.370Z,5672
2019-05-28T07:09:57.919Z,5692
2019-05-28T07:10:58.382Z,5688
2019-05-28T07:11:55.098Z,5656
2019-05-28T07:12:53.661Z,5600
2019-05-28T07:13:52.266Z,5592
2019-05-28T07:14:50.905Z,5612
2019-05-28T07:15:49.422Z,5628
2019-05-28T07:16:53.012Z,5628
2019-05-28T07:17:46.689Z,5612
2019-05-28T07:18:45.259Z,5612
2019-05-28T07:19:43.841Z,5536
2019-05-28T07:20:42.667Z,5480
2019-05-28T07:21:41.247Z,5456
2019-05-28T07:22:39.807Z,5460
2019-05-28T07:23:38.450Z,5432
2019-05-28T07:24:37.100Z,5432
2019-05-28T07:25:35.670Z,5400
2019-05-28T07:26:34.351Z,5344
2019-05-28T07:27:32.927Z,5308
2019-05-28T07:28:31.482Z,5272
2019-05-28T07:29:30.081Z,5316
2019-05-28T07:30:28.818Z,5372
2019-05-28T07:31:27.368Z,5496
2019-05-28T07:32:25.929Z,5628
2019-05-28T07:33:24.486Z,5752
2019-05-28T07:34:30.535Z,5868
2019-05-28T07:35:21.741Z,5972
2019-05-28T07:36:20.650Z,6020
2019-05-28T07:37:19.381Z,6024
2019-05-28T07:38:18.091Z,6004
2019-05-28T07:39:16.680Z,5960
2019-05-28T07:40:30.148Z,5912
2019-05-28T07:41:14.048Z,5852
2019-05-28T07:42:12.756Z,5776
2019-05-28T07:43:11.353Z,5684
2019-05-28T07:44:09.908Z,5588
2019-05-28T07:45:08.562Z,5500
2019-05-28T07:46:07.089Z,5468
2019-05-28T07:47:05.676Z,5472
2019-05-28T07:48:04.268Z,5480
2019-05-28T07:49:02.801Z,5544
2019-05-28T07:50:01.345Z,5620
2019-05-28T07:50:59.970Z,5716
2019-05-28T07:51:58.929Z,5860
2019-05-28T07:52:57.549Z,5996
2019-05-28T07:53:56.098Z,6140
2019-05-28T07:54:54.728Z,6212
2019-05-28T07:55:53.276Z,6276
2019-05-28T07:56:51.866Z,6336
2019-05-28T07:57:50.463Z,6504
2019-05-28T07:58:49.100Z,6616
2019-05-28T07:59:47.640Z,6664
2019-05-28T08:00:46.351Z,6720
2019-05-28T08:01:44.965Z,6792
2019-05-28T08:02:43.527Z,6792
2019-05-28T08:03:42.085Z,6828
2019-05-28T08:04:47.039Z,6776
2019-05-28T08:05:39.441Z,6692
2019-05-28T08:06:53.633Z,6576
2019-05-28T08:07:36.557Z,6428
2019-05-28T08:08:35.154Z,6288
2019-05-28T08:09:33.688Z,6144
2019-05-28T08:10:32.303Z,5972
2019-05-28T08:11:30.980Z,5872
2019-05-28T08:12:29.613Z,5744
2019-05-28T08:13:39.880Z,5632
2019-05-28T08:14:27.005Z,5572
2019-05-28T08:15:25.682Z,5576
2019-05-28T08:16:24.473Z,5636
2019-05-28T08:17:22.814Z,5724
2019-05-28T08:18:21.400Z,5896
2019-05-28T08:19:19.963Z,6048
2019-05-28T08:20:18.722Z,6196
2019-05-28T08:21:17.195Z,6320
2019-05-28T08:22:15.749Z,6388
2019-05-28T08:23:14.415Z,6408
2019-05-28T08:24:13.208Z,6428
2019-05-28T08:25:23.908Z,6468
2019-05-28T08:26:10.225Z,6488
2019-05-28T08:27:08.786Z,6536
2019-05-28T08:28:19.066Z,6648
2019-05-28T08:29:05.949Z,6732
2019-05-28T08:30:04.507Z,6856
2019-05-28T08:31:14.477Z,6896
2019-05-28T08:32:01.627Z,6924
2019-05-28T08:33:00.324Z,6956
2019-05-28T08:33:58.956Z,6968
2019-05-28T08:35:05.230Z,6864
2019-05-28T08:35:56.102Z,6748
2019-05-28T08:37:04.827Z,6556
2019-05-28T08:37:53.574Z,6416
2019-05-28T08:38:52.142Z,6240
2019-05-28T08:39:50.800Z,6148
2019-05-28T08:40:49.464Z,6016
2019-05-28T08:41:48.111Z,5956
2019-05-28T08:42:46.790Z,5896
2019-05-28T08:43:45.344Z,5872
2019-05-28T08:44:43.890Z,5900
2019-05-28T08:45:42.968Z,5952
2019-05-28T08:46:41.197Z,6072
2019-05-28T08:47:39.788Z,6200
2019-05-28T08:48:38.378Z,6340
2019-05-28T08:49:36.897Z,6516
2019-05-28T08:50:35.493Z,6728
2019-05-28T08:51:34.029Z,6984
2019-05-28T08:52:32.667Z,7252
2019-05-28T08:53:31.354Z,7484
2019-05-28T08:54:30.035Z,7780
2019-05-28T08:55:28.808Z,8008
2019-05-28T08:56:27.350Z,8260
2019-05-28T08:57:26.023Z,8468
2019-05-28T08:58:24.656Z,8648
2019-05-28T08:59:23.261Z,8740
2019-05-28T09:00:21.882Z,8688
2019-05-28T09:01:20.549Z,8568
2019-05-28T09:02:27.622Z,8428
2019-05-28T09:03:17.732Z,8284
2019-05-28T09:04:16.389Z,8132
2019-05-28T09:05:25.510Z,8036
2019-05-28T09:06:13.570Z,7972
2019-05-28T09:07:12.160Z,7936
2019-05-28T09:08:11.029Z,7932
2019-05-28T09:09:09.586Z,7984
2019-05-28T09:12:48.408Z,8300
2019-05-28T09:13:46.996Z,8368
2019-05-28T09:14:55.546Z,8400
2019-05-28T09:15:44.136Z,8460
2019-05-28T09:16:42.741Z,8400
2019-05-28T09:17:41.465Z,8332
2019-05-28T09:18:40.037Z,8248
2019-05-28T09:19:38.969Z,8216
2019-05-28T09:20:37.520Z,8152
2019-05-28T09:24:04.486Z,7552
2019-05-28T09:25:03.087Z,7484
2019-05-28T09:26:01.646Z,7392
2019-05-28T09:28:29.643Z,7576
2019-05-28T09:29:23.258Z,7512
2019-05-28T09:30:22.120Z,7344
2019-05-28T09:31:20.899Z,7464
2019-05-28T09:32:19.455Z,7540
2019-05-28T09:33:18.042Z,7516
2019-05-28T09:34:16.770Z,7484
2019-05-28T09:35:15.340Z,7412
2019-05-28T09:36:13.909Z,7344
2019-05-28T09:37:12.502Z,7304
2019-05-28T09:38:11.126Z,7228
2019-05-28T09:39:09.723Z,7180
2019-05-28T09:40:08.564Z,7148
2019-05-28T09:41:07.294Z,7208
2019-05-28T09:42:06.303Z,7224
2019-05-28T09:43:05.059Z,7284
2019-05-28T09:44:03.644Z,7376
2019-05-28T09:45:19.311Z,7436
2019-05-28T09:46:00.978Z,7568
2019-05-28T09:46:59.522Z,7672
2019-05-28T09:47:58.280Z,7720
2019-05-28T09:48:57.075Z,7828
2019-05-28T09:49:56.369Z,7984
2019-05-28T09:50:54.447Z,8136
2019-05-28T09:51:53.048Z,8228
2019-05-28T09:52:54.722Z,8292
2019-05-28T09:53:50.202Z,8224
2019-05-28T09:54:49.106Z,8300
2019-05-28T09:55:47.681Z,8288
2019-05-28T09:56:46.302Z,8292
2019-05-28T09:57:47.622Z,8392
2019-05-28T09:58:43.685Z,8616
2019-05-28T09:59:42.345Z,8784
2019-05-28T10:00:56.432Z,8996
2019-05-28T10:01:39.742Z,9024
2019-05-28T10:02:38.350Z,9028
2019-05-28T10:03:37.228Z,8896
2019-05-28T10:04:47.125Z,8844
2019-05-28T10:05:34.453Z,8792
2019-05-28T10:06:36.980Z,8736
2019-05-28T10:07:31.667Z,8668
2019-05-28T10:08:30.230Z,8660
2019-05-28T10:09:28.962Z,8720
2019-05-28T10:10:27.569Z,8692
2019-05-28T10:11:26.363Z,8740
2019-05-28T10:12:24.862Z,8872
2019-05-28T10:13:37.693Z,8808
2019-05-28T10:14:21.961Z,8824
2019-05-28T10:15:20.555Z,8784
2019-05-28T10:16:19.114Z,8800
2019-05-28T10:17:17.706Z,8724
2019-05-28T10:18:16.264Z,8648
2019-05-28T10:19:14.964Z,8556
2019-05-28T10:20:13.609Z,8516
2019-05-28T10:21:18.105Z,8440
2019-05-28T10:22:10.995Z,8436
2019-05-28T10:23:09.644Z,8432
2019-05-28T10:24:08.215Z,8388
2019-05-28T10:25:07.044Z,8292
2019-05-28T10:26:05.563Z,8136
2019-05-28T10:27:04.402Z,7892
2019-05-28T10:28:03.162Z,7768
2019-05-28T10:29:01.722Z,7700
2019-05-28T10:30:00.348Z,7328
2019-05-28T10:30:59.231Z,7068
2019-05-28T10:31:57.833Z,6936
2019-05-28T10:32:56.482Z,6776
2019-05-28T10:33:55.224Z,6540
2019-05-28T10:35:03.547Z,6296
2019-05-28T10:35:52.374Z,6160
2019-05-28T10:36:50.908Z,6212
2019-05-28T10:37:49.588Z,6304
2019-05-28T10:38:48.194Z,6576
2019-05-28T10:39:46.895Z,6536
2019-05-28T10:40:45.499Z,6556
2019-05-28T10:41:44.382Z,6500
2019-05-28T10:42:42.941Z,6396
2019-05-28T10:43:41.492Z,6332
2019-05-28T10:44:40.183Z,6240
2019-05-28T10:45:39.075Z,5944
2019-05-28T10:46:37.711Z,6040
2019-05-28T10:47:36.275Z,5968
2019-05-28T10:48:34.910Z,6024
2019-05-28T10:49:33.474Z,5980
2019-05-28T10:50:32.052Z,6012
2019-05-28T10:51:30.654Z,5596
2019-05-28T10:52:29.384Z,5472
2019-05-28T10:53:27.980Z,5324
2019-05-28T10:54:26.668Z,5308
2019-05-28T10:55:25.379Z,5832
2019-05-28T10:56:24.019Z,5888
2019-05-28T10:57:22.608Z,6232
2019-05-28T10:58:21.172Z,6508
2019-05-28T10:59:19.743Z,5936
2019-05-28T11:00:18.299Z,4956
2019-05-28T11:01:16.947Z,5320
2019-05-28T11:02:15.580Z,5420
2019-05-28T11:03:14.219Z,5088
2019-05-28T11:04:12.875Z,4424
2019-05-28T11:05:11.426Z,4612
2019-05-28T11:06:10.008Z,4076
2019-05-28T11:07:08.763Z,4700
2019-05-28T11:08:07.314Z,4884
2019-05-28T11:09:08.710Z,4796
2019-05-28T11:10:20.182Z,4912
2019-05-28T11:11:03.311Z,5352
2019-05-28T11:12:01.852Z,5604
2019-05-28T11:13:00.561Z,5732
2019-05-28T11:13:59.181Z,5712
2019-05-28T11:14:57.741Z,5788
2019-05-28T11:15:56.312Z,5552
2019-05-28T11:16:54.894Z,4696
2019-05-28T11:17:53.580Z,4952
2019-05-28T11:18:52.135Z,5520
2019-05-28T11:19:50.855Z,5908
2019-05-28T11:20:49.512Z,5428
2019-05-28T11:21:48.091Z,4704
2019-05-28T11:22:46.962Z,4444
2019-05-28T11:23:45.536Z,4684
2019-05-28T11:24:44.112Z,5804
2019-05-28T11:25:42.722Z,6248
2019-05-28T11:26:41.459Z,6728
2019-05-28T11:27:40.024Z,6384
2019-05-28T11:28:38.628Z,6516
2019-05-28T11:29:37.211Z,6888
2019-05-28T11:30:35.809Z,6768
2019-05-28T11:31:34.372Z,6452
2019-05-28T11:32:33.092Z,5864
2019-05-28T11:33:31.684Z,5532
2019-05-28T11:34:30.228Z,5388
2019-05-28T11:35:28.775Z,5504
2019-05-28T11:36:27.422Z,5676
2019-05-28T11:37:26.012Z,5764
2019-05-28T11:38:24.650Z,6104
2019-05-28T11:39:23.262Z,6588
2019-05-28T11:40:21.803Z,6912
2019-05-28T11:41:20.656Z,7184
2019-05-28T11:42:19.230Z,7132
2019-05-28T11:43:17.875Z,6948
2019-05-28T11:44:16.430Z,6652
2019-05-28T11:45:16.145Z,6408
2019-05-28T11:46:13.564Z,6220
2019-05-28T11:47:12.136Z,6064
2019-05-28T11:48:11.064Z,5768
2019-05-28T11:49:09.767Z,5416
2019-05-28T11:50:08.440Z,5164
2019-05-28T11:51:06.941Z,4804
2019-05-28T11:52:05.562Z,4392
2019-05-28T11:53:04.082Z,4148
2019-05-28T11:54:02.678Z,4000
2019-05-28T11:55:01.276Z,3784
2019-05-28T11:57:41.538Z,3628
2019-05-28T11:58:40.107Z,3668
2019-05-28T11:59:38.867Z,3656
2019-05-28T12:00:37.442Z,3692
2019-05-28T12:01:36.295Z,3772
2019-05-28T12:02:34.923Z,3924
2019-05-28T12:03:33.467Z,3888
2019-05-28T12:04:32.006Z,3804
2019-05-28T12:05:30.748Z,3740
2019-05-28T12:06:29.452Z,3696
2019-05-28T12:07:28.037Z,3840
2019-05-28T12:08:26.615Z,3964
2019-05-28T12:09:25.175Z,3776
2019-05-28T12:10:23.775Z,3720
2019-05-28T12:11:22.442Z,3804
2019-05-28T12:12:21.359Z,4316
2019-05-28T12:13:20.009Z,4624
2019-05-28T12:14:18.742Z,5280
2019-05-28T12:15:17.310Z,5416
2019-05-28T12:16:15.949Z,5532
2019-05-28T12:17:14.810Z,6052
2019-05-28T12:18:13.370Z,6036
2019-05-28T12:19:11.918Z,6028
2019-05-28T12:20:10.856Z,5972
2019-05-28T12:21:09.397Z,5768
2019-05-28T12:22:08.090Z,5692
2019-05-28T12:23:11.443Z,5496
2019-05-28T12:24:05.578Z,5224
2019-05-28T12:25:04.422Z,4916
2019-05-28T12:26:03.639Z,4932
2019-05-28T12:27:02.353Z,4944
2019-05-28T12:28:01.035Z,4944
2019-05-28T12:28:59.612Z,4848
2019-05-28T12:29:58.168Z,4816
2019-05-28T12:30:57.102Z,4888
2019-05-28T12:33:37.414Z,4740
2019-05-28T12:34:35.991Z,4596
2019-05-28T12:35:34.646Z,4556
2019-05-28T12:36:33.297Z,4428
2019-05-28T12:37:46.788Z,4364
2019-05-28T12:38:30.635Z,4556
2019-05-28T12:39:29.335Z,4524
2019-05-28T12:40:44.079Z,4812
2019-05-28T12:41:26.565Z,5128
2019-05-28T12:42:25.102Z,5488
2019-05-28T12:43:23.702Z,5344
2019-05-28T12:44:22.274Z,5316
2019-05-28T12:46:47.824Z,5240
2019-05-28T12:48:04.412Z,5160
2019-05-28T12:48:45.244Z,5104
2019-05-28T12:49:43.793Z,5000
2019-05-28T12:50:42.471Z,4948
2019-05-28T12:51:41.033Z,4976
2019-05-28T12:52:39.700Z,5196
2019-05-28T12:53:49.676Z,5252
2019-05-28T12:54:36.922Z,5256
2019-05-28T12:55:35.543Z,5116
2019-05-28T12:56:34.151Z,5100
2019-05-28T12:57:32.997Z,4880
2019-05-28T12:58:42.110Z,4608
2019-05-28T12:59:30.117Z,4316
2019-05-28T13:00:28.717Z,4264
2019-05-28T13:01:27.272Z,4076
2019-05-28T13:02:25.881Z,3912
2019-05-28T13:03:24.409Z,3752
2019-05-28T13:04:23.194Z,3812
2019-05-28T13:05:21.756Z,3716
2019-05-28T13:06:20.971Z,3524
2019-05-28T13:07:19.597Z,3092
2019-05-28T13:08:18.344Z,2952
2019-05-28T13:09:17.318Z,2732
2019-05-28T13:10:15.882Z,2388
2019-05-28T13:11:14.446Z,2072
2019-05-28T13:12:13.308Z,1856
2019-05-28T13:13:12.011Z,1712
2019-05-28T13:14:10.748Z,1800
2019-05-28T13:15:09.381Z,2040
2019-05-28T13:16:08.102Z,2408
2019-05-28T13:17:06.893Z,2940
2019-05-28T13:18:05.547Z,3924
2019-05-28T13:19:04.156Z,4452
2019-05-28T13:20:02.763Z,5328
2019-05-28T13:21:01.359Z,5092
2019-05-28T13:22:00.320Z,5208
2019-05-28T13:22:59.122Z,5196
2019-05-28T13:23:57.809Z,5084
2019-05-28T13:24:56.400Z,5024
2019-05-28T13:25:55.081Z,5624
2019-05-28T13:26:53.738Z,5784
2019-05-28T13:27:52.374Z,5868
2019-05-28T13:28:51.157Z,6048
2019-05-28T13:29:49.784Z,6256
2019-05-28T13:30:48.457Z,6164
2019-05-28T13:31:47.033Z,6040
2019-05-28T13:32:45.915Z,5844
2019-05-28T13:33:44.323Z,5244
2019-05-28T13:34:43.179Z,5056
2019-05-28T13:35:41.803Z,4472
2019-05-28T13:36:40.579Z,4304
2019-05-28T13:37:39.173Z,4112
2019-05-28T13:38:37.802Z,3780
2019-05-28T13:39:36.481Z,3560
2019-05-28T13:40:35.060Z,3460
2019-05-28T13:41:33.699Z,3284
2019-05-28T13:42:32.318Z,3092
2019-05-28T13:43:31.164Z,3028
2019-05-28T13:44:29.732Z,2920
2019-05-28T13:45:28.300Z,2856
2019-05-28T13:46:27.127Z,2808
2019-05-28T13:47:33.345Z,2688
2019-05-28T13:48:24.408Z,2628
2019-05-28T13:49:23.267Z,2552
2019-05-28T13:50:21.876Z,2576
2019-05-28T13:51:20.583Z,2596
2019-05-28T13:52:19.333Z,2640
2019-05-28T13:53:17.969Z,2596
2019-05-28T13:54:16.869Z,2784
2019-05-28T13:55:15.473Z,2936
2019-05-28T13:56:14.006Z,3024
2019-05-28T13:57:12.590Z,3040
2019-05-28T13:58:11.357Z,3020
2019-05-28T13:59:09.994Z,2932
2019-05-28T14:00:08.876Z,2860
2019-05-28T14:01:07.442Z,2840
2019-05-28T14:02:06.861Z,2768
2019-05-28T14:03:04.771Z,2644
2019-05-28T14:04:03.514Z,2712
2019-05-28T14:05:02.105Z,2740
2019-05-28T14:06:00.764Z,2600
2019-05-28T14:06:59.448Z,2520